KFMY/FMY METAR and TAF weather

Enter ICAO airport designator
Station Type Date Time Source
KFMY METAR 2020/12/06 01:53 UTC NOAA

KFMY 060153Z 27003KT 10SM BKN039 21/19 A3004 RMK AO2 SLP176 T02060189


Station Type Date Time Source
KFMY Decoded METAR 2020/12/06 01:53 UTC NOAA

FORT MYERS PAGE FIELD, FL, United States (KFMY) 26-35N 081-52W 4M
Dec 05, 2020 - 08:53 PM EST / 2020.12.06 0153 UTC
Wind: from the W (270 degrees) at 3 MPH (3 KT):0
Visibility: 10 mile(s):0
Sky conditions: mostly cloudy
Temperature: 69.1 F (20.6 C)
Dew Point: 66.0 F (18.9 C)
Relative Humidity: 89%
Pressure (altimeter): 30.04 in. Hg (1017 hPa)
ob: KFMY 060153Z 27003KT 10SM BKN039 21/19 A3004 RMK AO2 SLP176 T02060189
cycle: 2

Station Type Date Time Source
KFMY TAF 2020/12/06 02:57 UTC NOAA

TAF
AMD KFMY 060155Z 0602/0624 30004KT P6SM SCT025 BKN040
TEMPO 0602/0604 BKN025
FM060400 02004KT P6SM SCT015 SCT250
FM060700 02004KT P6SM SCT015 BKN025
FM061400 08005KT P6SM SCT025 SCT120 BKN250
FM061900 23006KT P6SM SCT030 SCT100 OVC200

Example: see airport list